Startpagina
METAR-TAF:

METAR-TAF

Vliegvelden :

Porto Alegre, Rio Grande do Sul, Brazilië

Aeroporto Internacional Salgado Filho

breedte: 30-00S, lengte: 051-11W, hoogte: 3 m

Actueel weer

Dit bericht is 55 minuten geleden gemaakt, om 12:00 UTC
Wind 4 kt uit het westnoordwesten
Temperatuur
Druk 1015 hPa
Zicht: 3000 m
Gebroken wolken op 900 ft
Gebroken wolken op 3000 ft
Weinig wolken op 4000 ft, Cumulonimbus.
Geheel bewolkt op 9000 ft
onweer, regen

METAR: SBPA 261200Z 29004KT 3000 TSRA BKN009 BKN030 FEW040CB OVC090 21 /21 Q1015

Tijdstip: 09:55 (12:55 UTC)

Verwachting

Dit bericht is 3 uur en het 25 minuten geleden gemaakt, om 09:30 UTC
Verwachting geldig van 26 om 12 UTC tot 27 om 12 UTC
Wind 10 kt uit het zuiden
Zicht: 7000 m
Gebroken wolken op 600 ft
Geheel bewolkt op 1000 ft
regen
Kans 30% :
Tijdelijke
van 26 om 12 UTC tot 26 om 15 UTC
Wind 8 kt uit het westen

TAF: SBPA 260930Z 2612/2712 17010KT 7000 RA BKN006 OVC010 TX22/2612Z T N16/2712Z PROB30 TEMPO 2612/2615 27008KT RMK PDN

Waarnemingen en weersverwachtingen van meer dan 4000 vliegvelden (METAR en TAF).

De beschikbare stations zijn de gele en rode punten op de kaart.

Ga met uw muis naar het station om de naam te zien.

Klik dan om waarnemingen en weersverwachtingen te zien.

kaart wijzigen: klik op de groene knoppen met een zwart kruis om in te zoomen, op de groene knop met een streepje om uit te zoomen of op de groene pijlen voor aangrenzende kaarten.


METAR-TAF: